Time;durP1;ratioP1;P1;durP2;ratioP2;P2;SDS_P1;SDS_P2;PMS_P1;PMS_P2;Temp;Humidity;BMP_temperature;BMP_pressure;BME280_temperature;BME280_humidity;BME280_pressure;Samples;Min_cycle;Max_cycle;Signal;HPM_P1;HPM_P2
2020/12/23 00:01:44;;;;;;;1.40;0.67;;;;;;;;;;5007612;28;20074;-79
2020/12/23 00:04:10;;;;;;;1.50;0.60;;;;;;;;;;5035432;28;20060;-78
2020/12/23 00:06:36;;;;;;;1.40;0.67;;;;;;;;;;5021462;28;20029;-79
2020/12/23 00:09:06;;;;;;;2.27;0.57;;;;;;;;;;5014741;28;20033;-79
2020/12/23 00:11:35;;;;;;;2.47;0.60;;;;;;;;;;5013636;28;20029;-79
2020/12/23 00:14:01;;;;;;;1.53;0.70;;;;;;;;;;5011567;28;20061;-78
2020/12/23 00:16:27;;;;;;;1.47;0.70;;;;;;;;;;4994253;28;20760;-79
2020/12/23 00:18:53;;;;;;;1.73;0.70;;;;;;;;;;4998891;28;20058;-78
2020/12/23 00:21:20;;;;;;;1.30;0.63;;;;;;;;;;4997116;28;20022;-79
2020/12/23 00:23:47;;;;;;;1.33;0.50;;;;;;;;;;5017613;28;20032;-79
2020/12/23 00:26:13;;;;;;;2.53;0.70;;;;;;;;;;5034199;28;20035;-79
2020/12/23 00:28:40;;;;;;;1.50;0.50;;;;;;;;;;5030869;28;20112;-79
2020/12/23 00:31:07;;;;;;;0.87;0.70;;;;;;;;;;5015320;28;20026;-79
2020/12/23 00:33:33;;;;;;;1.40;0.80;;;;;;;;;;5010763;28;20034;-79
2020/12/23 00:35:59;;;;;;;1.67;0.67;;;;;;;;;;5021438;28;20043;-79
2020/12/23 00:38:25;;;;;;;1.27;0.77;;;;;;;;;;5027808;28;20034;-78
2020/12/23 00:40:51;;;;;;;1.77;0.73;;;;;;;;;;5029149;28;20022;-79
2020/12/23 00:43:17;;;;;;;2.13;0.90;;;;;;;;;;5015139;28;20030;-79
2020/12/23 00:45:43;;;;;;;3.60;0.90;;;;;;;;;;5012986;28;20026;-79
2020/12/23 00:48:09;;;;;;;1.77;0.80;;;;;;;;;;5013759;28;20030;-79
2020/12/23 00:50:35;;;;;;;1.60;0.87;;;;;;;;;;5013455;28;20049;-78
2020/12/23 00:53:01;;;;;;;1.50;0.70;;;;;;;;;;5027781;28;20037;-79
2020/12/23 00:55:27;;;;;;;3.17;0.80;;;;;;;;;;5033746;28;20028;-78
2020/12/23 00:57:53;;;;;;;1.23;0.70;;;;;;;;;;5019183;28;20069;-78
2020/12/23 01:00:20;;;;;;;2.77;0.70;;;;;;;;;;5013842;28;20022;-79
2020/12/23 01:02:46;;;;;;;1.97;0.80;;;;;;;;;;5013170;28;20061;-78
2020/12/23 01:05:12;;;;;;;0.70;0.53;;;;;;;;;;5013874;28;20046;-79
2020/12/23 01:07:38;;;;;;;1.30;0.90;;;;;;;;;;5029001;28;20036;-79
2020/12/23 01:10:04;;;;;;;1.03;0.70;;;;;;;;;;5013613;28;20140;-79
2020/12/23 01:12:30;;;;;;;1.00;0.60;;;;;;;;;;5005318;28;20117;-79
2020/12/23 01:14:57;;;;;;;2.70;0.80;;;;;;;;;;5014168;28;20026;-79
2020/12/23 01:17:23;;;;;;;1.50;0.90;;;;;;;;;;5013002;28;20022;-79
2020/12/23 01:19:49;;;;;;;2.93;0.90;;;;;;;;;;5014263;28;20064;-79
2020/12/23 01:22:15;;;;;;;2.57;0.80;;;;;;;;;;5013310;28;20030;-79
2020/12/23 01:24:41;;;;;;;1.00;0.60;;;;;;;;;;5020881;28;20330;-79
2020/12/23 01:27:07;;;;;;;1.83;1.00;;;;;;;;;;5013624;28;20033;-79
2020/12/23 01:29:34;;;;;;;2.23;0.73;;;;;;;;;;5013637;28;20117;-78
2020/12/23 01:32:00;;;;;;;1.17;0.60;;;;;;;;;;5008537;28;20034;-79
2020/12/23 01:34:26;;;;;;;0.97;0.67;;;;;;;;;;4993909;28;20478;-79
2020/12/23 01:36:52;;;;;;;0.73;0.70;;;;;;;;;;4996886;28;20081;-79
2020/12/23 01:39:18;;;;;;;0.70;0.60;;;;;;;;;;5014223;28;20033;-78
2020/12/23 01:41:44;;;;;;;0.70;0.60;;;;;;;;;;5013764;28;20030;-79
2020/12/23 01:44:10;;;;;;;0.80;0.60;;;;;;;;;;5013566;28;20026;-79
2020/12/23 01:46:37;;;;;;;0.80;0.40;;;;;;;;;;5012947;28;20485;-79
2020/12/23 01:49:09;;;;;;;2.00;0.60;;;;;;;;;;5015058;28;20681;-79
2020/12/23 01:51:36;;;;;;;0.40;0.40;;;;;;;;;;5013533;28;20038;-78
2020/12/23 01:54:03;;;;;;;0.40;0.40;;;;;;;;;;5012987;28;20038;-79
2020/12/23 01:56:29;;;;;;;0.77;0.40;;;;;;;;;;5029102;28;20461;-79
2020/12/23 01:58:55;;;;;;;0.70;0.57;;;;;;;;;;5013857;28;20030;-77
2020/12/23 02:01:22;;;;;;;0.93;0.50;;;;;;;;;;5013301;28;20112;-79
2020/12/23 02:03:49;;;;;;;1.23;0.70;;;;;;;;;;5011923;28;20042;-79
2020/12/23 02:06:15;;;;;;;1.37;0.60;;;;;;;;;;5013364;28;20033;-79
2020/12/23 02:08:42;;;;;;;3.90;0.60;;;;;;;;;;5007315;28;20061;-79
2020/12/23 02:11:12;;;;;;;1.20;0.40;;;;;;;;;;5007978;28;20046;-78
2020/12/23 02:13:39;;;;;;;1.07;0.63;;;;;;;;;;5014094;28;20030;-79
2020/12/23 02:16:05;;;;;;;0.40;0.30;;;;;;;;;;5014935;28;20396;-79
2020/12/23 02:18:32;;;;;;;3.60;0.73;;;;;;;;;;5009596;28;20023;-79
2020/12/23 02:20:58;;;;;;;0.93;0.37;;;;;;;;;;5013725;28;20026;-79
2020/12/23 02:23:24;;;;;;;1.10;0.57;;;;;;;;;;5013836;28;20766;-79
2020/12/23 02:25:50;;;;;;;1.63;0.60;;;;;;;;;;5012146;28;20034;-79
2020/12/23 02:28:16;;;;;;;1.37;0.60;;;;;;;;;;5009893;28;20176;-79
2020/12/23 02:30:42;;;;;;;1.57;0.50;;;;;;;;;;5034175;28;20033;-80
2020/12/23 02:33:08;;;;;;;0.70;0.50;;;;;;;;;;5013905;28;20116;-79
2020/12/23 02:35:34;;;;;;;0.60;0.50;;;;;;;;;;5013651;28;20116;-79
2020/12/23 02:38:01;;;;;;;0.40;0.40;;;;;;;;;;5013736;28;20673;-79
2020/12/23 02:40:27;;;;;;;0.47;0.40;;;;;;;;;;5015782;28;20030;-79
2020/12/23 02:42:53;;;;;;;1.83;0.60;;;;;;;;;;5014402;28;20070;-78
2020/12/23 02:45:19;;;;;;;1.10;0.50;;;;;;;;;;5007188;28;20129;-79
2020/12/23 02:47:45;;;;;;;1.37;0.70;;;;;;;;;;5013664;28;20138;-79
2020/12/23 02:50:11;;;;;;;2.40;0.60;;;;;;;;;;5012888;28;20025;-79
2020/12/23 02:52:37;;;;;;;0.83;0.50;;;;;;;;;;5010572;28;20090;-79
2020/12/23 02:55:03;;;;;;;2.87;0.60;;;;;;;;;;5061391;28;20029;-79
2020/12/23 02:57:29;;;;;;;0.73;0.50;;;;;;;;;;5032141;28;20026;-79
2020/12/23 02:59:55;;;;;;;1.43;0.70;;;;;;;;;;5018803;28;20543;-79
2020/12/23 03:02:21;;;;;;;0.43;0.40;;;;;;;;;;5014706;28;20085;-79
2020/12/23 03:04:47;;;;;;;0.33;0.30;;;;;;;;;;5013020;28;20034;-78
2020/12/23 03:07:13;;;;;;;0.70;0.50;;;;;;;;;;5014362;28;20091;-79
2020/12/23 03:09:40;;;;;;;0.60;0.40;;;;;;;;;;5008311;28;20065;-79
2020/12/23 03:12:07;;;;;;;2.67;0.50;;;;;;;;;;5014097;28;20030;-79
2020/12/23 03:14:33;;;;;;;0.63;0.40;;;;;;;;;;4996548;28;20023;-79
2020/12/23 03:16:59;;;;;;;0.80;0.50;;;;;;;;;;5008501;28;20567;-79
2020/12/23 03:19:25;;;;;;;1.23;0.63;;;;;;;;;;5019213;28;20121;-79
2020/12/23 03:21:51;;;;;;;0.50;0.50;;;;;;;;;;5018547;28;20026;-79
2020/12/23 03:24:17;;;;;;;1.30;0.50;;;;;;;;;;5019678;28;20448;-77
2020/12/23 03:26:43;;;;;;;0.57;0.40;;;;;;;;;;5013277;28;20072;-79
2020/12/23 03:29:09;;;;;;;0.60;0.50;;;;;;;;;;5019120;28;20041;-79
2020/12/23 03:31:35;;;;;;;1.13;0.50;;;;;;;;;;5019437;28;20029;-79
2020/12/23 03:34:01;;;;;;;1.20;0.43;;;;;;;;;;5018340;28;20046;-79
2020/12/23 03:36:27;;;;;;;0.77;0.50;;;;;;;;;;5017779;28;20022;-79
2020/12/23 03:38:54;;;;;;;1.30;0.73;;;;;;;;;;5018092;28;20037;-79
2020/12/23 03:41:20;;;;;;;1.27;0.70;;;;;;;;;;5017783;28;20418;-78
2020/12/23 03:43:46;;;;;;;3.87;0.60;;;;;;;;;;5014718;28;20093;-79
2020/12/23 03:46:12;;;;;;;0.60;0.50;;;;;;;;;;5046241;28;20038;-79
2020/12/23 03:48:38;;;;;;;1.17;0.60;;;;;;;;;;5017463;28;20034;-79
2020/12/23 03:51:04;;;;;;;1.77;0.70;;;;;;;;;;5018065;28;20034;-79
2020/12/23 03:53:30;;;;;;;1.67;0.70;;;;;;;;;;5019841;28;20033;-80
2020/12/23 03:55:57;;;;;;;2.33;0.47;;;;;;;;;;5015814;28;20022;-78
2020/12/23 03:58:23;;;;;;;2.37;0.70;;;;;;;;;;5016441;28;20030;-79
2020/12/23 04:00:49;;;;;;;4.23;0.70;;;;;;;;;;5016867;28;20029;-79
2020/12/23 04:03:15;;;;;;;0.47;0.40;;;;;;;;;;5016245;28;20066;-78
2020/12/23 04:05:41;;;;;;;0.70;0.37;;;;;;;;;;5019847;28;20034;-79
2020/12/23 04:08:07;;;;;;;1.60;0.50;;;;;;;;;;4998324;28;20716;-78
2020/12/23 04:10:33;;;;;;;2.47;0.40;;;;;;;;;;5005393;28;20111;-79
2020/12/23 04:13:00;;;;;;;1.73;0.53;;;;;;;;;;5015031;28;20026;-79
2020/12/23 04:15:26;;;;;;;0.60;0.40;;;;;;;;;;5016696;28;20030;-77
2020/12/23 04:17:53;;;;;;;1.07;0.47;;;;;;;;;;5015220;28;20121;-78
2020/12/23 04:20:19;;;;;;;0.93;0.50;;;;;;;;;;5015278;28;20061;-79
2020/12/23 04:22:45;;;;;;;0.60;0.50;;;;;;;;;;5015658;28;20034;-79
2020/12/23 04:25:12;;;;;;;1.00;0.40;;;;;;;;;;5013736;28;20033;-79
2020/12/23 04:27:38;;;;;;;1.63;0.53;;;;;;;;;;5031592;28;20061;-78
2020/12/23 04:30:05;;;;;;;1.87;0.60;;;;;;;;;;5018258;28;20125;-79
2020/12/23 04:32:31;;;;;;;1.30;0.40;;;;;;;;;;5014689;28;20112;-78
2020/12/23 04:35:01;;;;;;;1.13;0.60;;;;;;;;;;5009135;28;20065;-78
2020/12/23 04:37:28;;;;;;;0.67;0.50;;;;;;;;;;5013857;28;20060;-78
2020/12/23 04:39:54;;;;;;;1.23;0.40;;;;;;;;;;5015850;28;20397;-79
2020/12/23 04:42:21;;;;;;;1.63;0.40;;;;;;;;;;5014534;28;20040;-79
2020/12/23 04:44:47;;;;;;;0.90;0.60;;;;;;;;;;5015184;28;20064;-79
2020/12/23 04:47:15;;;;;;;0.77;0.43;;;;;;;;;;5014207;28;20089;-79
2020/12/23 04:49:45;;;;;;;0.60;0.50;;;;;;;;;;5010854;28;20548;-79
2020/12/23 04:52:12;;;;;;;2.60;0.60;;;;;;;;;;5027935;28;20110;-79
2020/12/23 04:54:38;;;;;;;1.37;0.60;;;;;;;;;;5041617;28;20029;-79
2020/12/23 04:57:04;;;;;;;1.30;0.40;;;;;;;;;;5034497;28;20071;-79
2020/12/23 04:59:30;;;;;;;1.00;0.50;;;;;;;;;;5023218;28;20149;-79
2020/12/23 05:02:03;;;;;;;1.50;0.60;;;;;;;;;;5014807;28;20107;-79
2020/12/23 05:04:29;;;;;;;2.07;0.70;;;;;;;;;;5015316;28;20061;-79
2020/12/23 05:07:02;;;;;;;1.60;0.60;;;;;;;;;;5015595;28;20061;-79
2020/12/23 05:09:29;;;;;;;1.57;0.80;;;;;;;;;;5014093;28;20033;-79
2020/12/23 05:11:55;;;;;;;1.23;0.70;;;;;;;;;;5014516;28;20638;-79
2020/12/23 05:14:22;;;;;;;2.73;1.10;;;;;;;;;;5014302;28;20037;-79
2020/12/23 05:16:49;;;;;;;1.37;0.80;;;;;;;;;;5011936;28;20089;-79
2020/12/23 05:19:17;;;;;;;5.00;1.13;;;;;;;;;;5009726;28;20033;-79
2020/12/23 05:21:43;;;;;;;1.70;1.10;;;;;;;;;;5014360;28;20081;-78
2020/12/23 05:24:10;;;;;;;4.07;0.97;;;;;;;;;;5017616;28;20030;-79
2020/12/23 05:26:39;;;;;;;2.00;0.60;;;;;;;;;;5016426;28;20030;-79
2020/12/23 05:29:05;;;;;;;2.60;0.83;;;;;;;;;;5013503;28;20040;-79
2020/12/23 05:31:32;;;;;;;1.87;0.83;;;;;;;;;;5012775;28;20048;-78
2020/12/23 05:33:59;;;;;;;2.60;0.70;;;;;;;;;;5011361;28;20037;-79
2020/12/23 05:36:26;;;;;;;2.77;0.90;;;;;;;;;;5012296;28;20040;-79
2020/12/23 05:38:52;;;;;;;4.47;1.60;;;;;;;;;;5014426;28;20026;-79
2020/12/23 05:41:18;;;;;;;3.27;1.50;;;;;;;;;;5013498;28;20474;-78
2020/12/23 05:43:44;;;;;;;2.80;1.03;;;;;;;;;;5014183;28;20041;-79
2020/12/23 05:46:11;;;;;;;1.80;1.40;;;;;;;;;;5012053;28;20037;-79
2020/12/23 05:48:38;;;;;;;2.00;1.20;;;;;;;;;;5012661;28;20508;-79
2020/12/23 05:51:09;;;;;;;2.27;1.00;;;;;;;;;;5012312;28;20252;-79
2020/12/23 05:53:37;;;;;;;3.27;2.00;;;;;;;;;;5012340;28;20422;-79
2020/12/23 05:56:04;;;;;;;4.23;1.17;;;;;;;;;;5011862;28;20096;-80
2020/12/23 05:58:35;;;;;;;1.37;0.90;;;;;;;;;;5012303;28;20037;-78
2020/12/23 06:01:02;;;;;;;1.90;1.10;;;;;;;;;;5013598;28;20044;-78
2020/12/23 06:03:47;;;;;;;2.67;1.40;;;;;;;;;;5012586;28;20429;-78
2020/12/23 06:06:13;;;;;;;2.23;1.13;;;;;;;;;;5011491;28;20036;-79
2020/12/23 06:08:40;;;;;;;2.60;1.67;;;;;;;;;;5011845;28;20037;-78
2020/12/23 06:11:26;;;;;;;1.57;1.00;;;;;;;;;;5011676;28;20926;-78
2020/12/23 06:14:11;;;;;;;1.60;1.00;;;;;;;;;;4992220;28;20074;-79
2020/12/23 06:16:38;;;;;;;2.17;1.27;;;;;;;;;;4994890;28;20077;-79
2020/12/23 06:19:05;;;;;;;3.10;1.27;;;;;;;;;;5011219;28;20046;-78
2020/12/23 06:21:31;;;;;;;2.00;1.20;;;;;;;;;;5026201;28;20034;-78
2020/12/23 06:24:02;;;;;;;2.90;1.70;;;;;;;;;;5028170;28;20080;-79
2020/12/23 06:26:36;;;;;;;7.77;1.90;;;;;;;;;;5020205;28;20034;-79
2020/12/23 06:29:04;;;;;;;2.70;1.77;;;;;;;;;;5014590;28;20521;-78
2020/12/23 06:31:32;;;;;;;3.53;1.60;;;;;;;;;;5013018;28;20057;-79
2020/12/23 06:33:58;;;;;;;2.87;1.77;;;;;;;;;;5009564;28;20057;-78
2020/12/23 06:36:28;;;;;;;4.90;2.43;;;;;;;;;;5025228;28;20173;-78
2020/12/23 06:39:14;;;;;;;5.57;2.07;;;;;;;;;;5030610;28;20355;-78
2020/12/23 06:41:40;;;;;;;4.50;2.30;;;;;;;;;;5012669;28;20047;-79
2020/12/23 06:44:09;;;;;;;6.63;4.00;;;;;;;;;;5011988;28;20026;-79
2020/12/23 06:46:54;;;;;;;6.27;4.60;;;;;;;;;;5011299;28;20037;-79
2020/12/23 06:49:21;;;;;;;5.83;3.30;;;;;;;;;;5013896;28;20030;-79
2020/12/23 06:51:47;;;;;;;4.27;2.67;;;;;;;;;;5018088;28;20072;-79
2020/12/23 06:54:33;;;;;;;4.77;2.50;;;;;;;;;;5018136;28;20480;-79
2020/12/23 06:56:59;;;;;;;4.77;2.97;;;;;;;;;;5018241;28;20056;-79
2020/12/23 06:59:44;;;;;;;5.67;2.80;;;;;;;;;;5019048;28;20102;-79
2020/12/23 07:02:10;;;;;;;5.67;3.30;;;;;;;;;;5019939;28;20036;-79
2020/12/23 07:04:46;;;;;;;5.27;3.10;;;;;;;;;;5020232;28;20029;-79
2020/12/23 07:07:31;;;;;;;5.30;3.20;;;;;;;;;;5007877;28;20030;-79
2020/12/23 07:09:57;;;;;;;4.67;2.80;;;;;;;;;;5019617;28;20034;-79
2020/12/23 07:12:26;;;;;;;10.30;4.67;;;;;;;;;;5017840;28;20269;-79
2020/12/23 07:15:12;;;;;;;17.03;7.13;;;;;;;;;;5035672;28;20330;-79
2020/12/23 07:17:39;;;;;;;9.83;4.00;;;;;;;;;;5016524;28;20032;-79
2020/12/23 07:20:06;;;;;;;3.93;2.47;;;;;;;;;;5020682;28;20034;-79
2020/12/23 07:22:32;;;;;;;8.27;3.23;;;;;;;;;;5020553;28;20041;-79
2020/12/23 07:24:59;;;;;;;6.23;3.80;;;;;;;;;;5019256;28;20033;-79
2020/12/23 07:27:25;;;;;;;10.87;4.97;;;;;;;;;;5025678;28;20095;-79
2020/12/23 07:29:56;;;;;;;6.80;3.50;;;;;;;;;;5036917;28;20033;-79
2020/12/23 07:32:27;;;;;;;9.13;2.80;;;;;;;;;;5021332;28;20043;-78
2020/12/23 07:34:57;;;;;;;5.07;2.77;;;;;;;;;;5021546;28;20034;-79
2020/12/23 07:37:23;;;;;;;12.10;7.47;;;;;;;;;;5017198;28;20038;-78
2020/12/23 07:39:50;;;;;;;11.90;8.27;;;;;;;;;;5018650;28;20026;-79
2020/12/23 07:42:20;;;;;;;9.53;6.27;;;;;;;;;;5019732;28;20041;-79
2020/12/23 07:44:55;;;;;;;10.60;6.03;;;;;;;;;;5028390;28;20017;-79
2020/12/23 07:47:25;;;;;;;7.63;4.70;;;;;;;;;;5018436;28;20053;-79
2020/12/23 07:49:58;;;;;;;7.53;3.27;;;;;;;;;;5023999;28;20030;-79
2020/12/23 07:52:24;;;;;;;11.82;4.20;;;;;;;;;;5019002;28;20659;-79
2020/12/23 07:54:50;;;;;;;10.03;4.70;;;;;;;;;;5013748;28;20084;-79
2020/12/23 07:57:31;;;;;;;6.93;3.43;;;;;;;;;;5019143;28;20022;-79
2020/12/23 08:00:01;;;;;;;8.23;5.47;;;;;;;;;;5019213;28;20417;-80
2020/12/23 08:02:27;;;;;;;7.33;3.80;;;;;;;;;;5015796;28;20045;-79
2020/12/23 08:04:54;;;;;;;8.30;4.57;;;;;;;;;;5017405;28;20404;-80
2020/12/23 08:07:26;;;;;;;7.17;4.00;;;;;;;;;;5022442;28;20037;-80
2020/12/23 08:09:52;;;;;;;9.77;4.53;;;;;;;;;;5017598;28;20037;-80
2020/12/23 08:12:19;;;;;;;5.63;3.77;;;;;;;;;;5015877;28;20101;-79
2020/12/23 08:14:45;;;;;;;8.77;4.50;;;;;;;;;;5016618;28;20040;-79
2020/12/23 08:17:24;;;;;;;12.77;7.13;;;;;;;;;;5024492;28;20084;-79
2020/12/23 08:20:04;;;;;;;14.77;6.83;;;;;;;;;;5016290;28;20490;-80
2020/12/23 08:22:30;;;;;;;7.77;4.30;;;;;;;;;;5015796;28;20030;-79
2020/12/23 08:25:04;;;;;;;8.03;4.90;;;;;;;;;;5009425;28;20019;-80
2020/12/23 08:27:31;;;;;;;9.77;5.60;;;;;;;;;;5013754;28;20030;-79
2020/12/23 08:29:57;;;;;;;32.90;19.13;;;;;;;;;;5015074;28;20037;-80
2020/12/23 08:32:29;;;;;;;13.03;7.90;;;;;;;;;;5015871;28;20022;-79
2020/12/23 08:34:58;;;;;;;17.37;8.07;;;;;;;;;;5017134;28;20041;-79
2020/12/23 08:37:25;;;;;;;8.70;4.23;;;;;;;;;;5010564;28;20034;-79
2020/12/23 08:39:55;;;;;;;11.07;5.67;;;;;;;;;;5044399;28;20096;-81
2020/12/23 08:42:22;;;;;;;33.70;17.00;;;;;;;;;;5035018;28;20034;-79
2020/12/23 08:44:50;;;;;;;39.80;19.23;;;;;;;;;;5016598;28;20133;-79
2020/12/23 08:47:31;;;;;;;52.57;22.63;;;;;;;;;;5009018;28;20026;-79
2020/12/23 08:49:57;;;;;;;54.50;20.77;;;;;;;;;;5016451;28;20046;-79
2020/12/23 08:52:24;;;;;;;36.10;15.37;;;;;;;;;;5013134;28;20029;-79
2020/12/23 08:54:50;;;;;;;17.87;8.30;;;;;;;;;;5011812;28;20037;-79
2020/12/23 08:57:17;;;;;;;17.80;7.60;;;;;;;;;;5015883;28;20022;-80
2020/12/23 08:59:45;;;;;;;13.27;5.50;;;;;;;;;;5005421;28;20056;-79
2020/12/23 09:02:12;;;;;;;10.63;4.27;;;;;;;;;;5015974;28;20069;-80
2020/12/23 09:04:38;;;;;;;6.73;3.53;;;;;;;;;;5015326;28;20105;-80
2020/12/23 09:07:04;;;;;;;8.87;3.20;;;;;;;;;;5016693;28;20493;-79
2020/12/23 09:09:30;;;;;;;6.87;3.33;;;;;;;;;;5015273;28;20037;-79
2020/12/23 09:11:57;;;;;;;7.83;3.83;;;;;;;;;;5015803;28;20029;-80
2020/12/23 09:14:34;;;;;;;11.60;5.27;;;;;;;;;;5012587;28;20077;-80
2020/12/23 09:17:00;;;;;;;15.43;9.10;;;;;;;;;;5030461;28;20076;-80
2020/12/23 09:19:45;;;;;;;14.93;10.67;;;;;;;;;;5029554;28;20102;-80
2020/12/23 09:22:12;;;;;;;12.23;7.87;;;;;;;;;;5028946;28;20026;-80
2020/12/23 09:24:38;;;;;;;11.77;8.27;;;;;;;;;;5014213;28;20041;-80
2020/12/23 09:27:20;;;;;;;8.97;6.80;;;;;;;;;;5032620;28;20116;-80
2020/12/23 09:29:46;;;;;;;8.87;6.23;;;;;;;;;;5015549;28;20521;-80
2020/12/23 09:32:12;;;;;;;7.87;4.67;;;;;;;;;;5014867;28;20123;-79
2020/12/23 09:34:39;;;;;;;5.37;2.80;;;;;;;;;;5014156;28;20400;-79
2020/12/23 09:37:05;;;;;;;3.77;1.87;;;;;;;;;;5014745;28;20029;-79
2020/12/23 09:39:31;;;;;;;3.73;1.60;;;;;;;;;;5009099;28;20418;-79
2020/12/23 09:42:01;;;;;;;3.97;1.87;;;;;;;;;;4999404;28;20106;-79
2020/12/23 09:44:27;;;;;;;3.00;1.57;;;;;;;;;;5015272;28;20084;-79
2020/12/23 09:46:54;;;;;;;4.47;1.97;;;;;;;;;;5014571;28;20503;-79
2020/12/23 09:49:20;;;;;;;9.73;4.43;;;;;;;;;;5015717;28;20029;-79
2020/12/23 09:51:49;;;;;;;7.77;2.60;;;;;;;;;;5016491;28;20105;-79
2020/12/23 09:54:16;;;;;;;6.27;2.90;;;;;;;;;;5015120;28;20033;-79
2020/12/23 09:56:49;;;;;;;5.77;2.63;;;;;;;;;;5014722;28;20132;-79
2020/12/23 09:59:15;;;;;;;6.70;3.13;;;;;;;;;;5001105;28;20117;-79
2020/12/23 10:01:41;;;;;;;6.37;3.50;;;;;;;;;;5020518;28;20037;-79
2020/12/23 10:04:07;;;;;;;8.47;4.47;;;;;;;;;;5014781;28;20025;-79
2020/12/23 10:06:33;;;;;;;6.50;3.40;;;;;;;;;;5010648;28;20107;-78
2020/12/23 10:09:00;;;;;;;5.40;2.77;;;;;;;;;;5007562;28;20034;-79
2020/12/23 10:11:27;;;;;;;3.03;1.50;;;;;;;;;;5024100;28;20034;-79
2020/12/23 10:13:53;;;;;;;2.37;1.10;;;;;;;;;;5025086;28;20093;-78
2020/12/23 10:16:19;;;;;;;2.70;1.43;;;;;;;;;;5024271;28;20117;-78
2020/12/23 10:18:45;;;;;;;2.93;1.10;;;;;;;;;;5039791;28;20427;-79
2020/12/23 10:21:11;;;;;;;2.90;1.10;;;;;;;;;;5024207;28;20052;-79
2020/12/23 10:23:37;;;;;;;2.30;1.00;;;;;;;;;;5015659;28;20026;-78
2020/12/23 10:26:03;;;;;;;1.90;0.90;;;;;;;;;;5008167;28;20030;-79
2020/12/23 10:28:29;;;;;;;2.73;1.10;;;;;;;;;;4995312;28;20034;-79
2020/12/23 10:30:56;;;;;;;3.20;0.73;;;;;;;;;;5013325;28;20056;-79
2020/12/23 10:33:22;;;;;;;1.87;1.00;;;;;;;;;;5014878;28;20095;-79
2020/12/23 10:35:48;;;;;;;4.03;0.80;;;;;;;;;;5015511;28;20026;-79
2020/12/23 10:38:14;;;;;;;2.50;1.10;;;;;;;;;;5015241;28;20040;-79
2020/12/23 10:40:40;;;;;;;1.00;0.70;;;;;;;;;;5014715;28;20034;-79
2020/12/23 10:43:06;;;;;;;3.27;0.70;;;;;;;;;;5016589;28;20038;-79
2020/12/23 10:45:32;;;;;;;1.80;0.67;;;;;;;;;;5015499;28;20034;-79
2020/12/23 10:47:58;;;;;;;3.10;0.93;;;;;;;;;;5015860;28;20045;-79
2020/12/23 10:50:24;;;;;;;2.07;0.90;;;;;;;;;;5016200;28;20053;-80
2020/12/23 10:52:50;;;;;;;1.63;0.80;;;;;;;;;;5016210;28;20028;-80
2020/12/23 10:55:16;;;;;;;1.57;0.80;;;;;;;;;;5016717;28;20038;-79
2020/12/23 10:57:42;;;;;;;1.70;1.03;;;;;;;;;;5026116;28;20054;-80
2020/12/23 11:00:08;;;;;;;3.00;0.93;;;;;;;;;;5040213;28;20025;-78
2020/12/23 11:02:35;;;;;;;2.30;1.03;;;;;;;;;;5013750;28;20034;-79
2020/12/23 11:05:01;;;;;;;3.83;1.73;;;;;;;;;;5015706;28;20038;-80
2020/12/23 11:07:27;;;;;;;3.10;1.10;;;;;;;;;;5014600;28;20033;-80
2020/12/23 11:09:53;;;;;;;1.50;0.73;;;;;;;;;;4995437;28;20101;-79
2020/12/23 11:12:19;;;;;;;1.00;0.60;;;;;;;;;;5005967;28;20026;-78
2020/12/23 11:14:46;;;;;;;3.30;1.17;;;;;;;;;;5013026;28;20654;-79
2020/12/23 11:17:13;;;;;;;15.27;9.47;;;;;;;;;;5012877;28;20032;-79
2020/12/23 11:19:39;;;;;;;7.50;3.23;;;;;;;;;;5014334;28;20048;-81
2020/12/23 11:22:05;;;;;;;7.60;3.63;;;;;;;;;;5013891;28;20116;-79
2020/12/23 11:24:31;;;;;;;7.43;3.73;;;;;;;;;;5015735;28;20113;-79
2020/12/23 11:26:59;;;;;;;2.85;1.42;;;;;;;;;;5014169;28;20097;-80
2020/12/23 11:29:25;;;;;;;5.45;2.10;;;;;;;;;;5014179;28;20018;-80
2020/12/23 11:31:52;;;;;;;2.53;1.73;;;;;;;;;;5029269;28;20029;-80
2020/12/23 11:34:18;;;;;;;5.22;1.38;;;;;;;;;;5027899;28;21491;-79
2020/12/23 11:36:44;;;;;;;2.83;1.63;;;;;;;;;;5021185;28;20032;-81
2020/12/23 11:39:11;;;;;;;2.78;1.65;;;;;;;;;;5028466;28;20141;-79
2020/12/23 11:41:37;;;;;;;2.80;1.20;;;;;;;;;;5034973;28;20052;-79
2020/12/23 11:44:03;;;;;;;3.20;1.83;;;;;;;;;;5034818;28;20691;-80
2020/12/23 11:46:31;;;;;;;3.55;1.73;;;;;;;;;;5022755;28;20053;-80
2020/12/23 11:48:57;;;;;;;2.88;1.83;;;;;;;;;;5013840;28;20034;-80
2020/12/23 11:51:24;;;;;;;3.00;1.70;;;;;;;;;;5005145;28;20034;-79
2020/12/23 11:53:51;;;;;;;3.53;1.08;;;;;;;;;;5015242;28;20026;-79
2020/12/23 11:56:17;;;;;;;2.53;1.30;;;;;;;;;;5020548;28;20037;-79
2020/12/23 11:58:44;;;;;;;3.15;1.17;;;;;;;;;;5025636;28;20038;-80
2020/12/23 12:01:10;;;;;;;2.83;1.63;;;;;;;;;;4999700;28;20030;-80
2020/12/23 12:03:36;;;;;;;3.35;1.80;;;;;;;;;;5014045;28;20105;-79
2020/12/23 12:06:02;;;;;;;3.77;1.80;;;;;;;;;;5022146;28;20693;-81
2020/12/23 12:08:30;;;;;;;4.23;1.97;;;;;;;;;;5016957;28;20022;-80
2020/12/23 12:10:56;;;;;;;3.53;1.70;;;;;;;;;;5024689;28;20034;-80
2020/12/23 12:13:23;;;;;;;4.37;1.63;;;;;;;;;;5027037;28;20360;-81
2020/12/23 12:15:49;;;;;;;13.63;9.97;;;;;;;;;;5027237;28;20076;-80
2020/12/23 12:18:16;;;;;;;3.73;1.60;;;;;;;;;;5028455;28;20060;-80
2020/12/23 12:20:42;;;;;;;3.47;1.83;;;;;;;;;;5030327;28;20120;-80
2020/12/23 12:23:08;;;;;;;7.60;3.67;;;;;;;;;;5025022;28;20030;-79
2020/12/23 12:25:34;;;;;;;5.97;2.87;;;;;;;;;;5029717;28;20036;-79
2020/12/23 12:28:02;;;;;;;5.20;2.30;;;;;;;;;;5035438;28;20097;-79
2020/12/23 12:30:35;;;;;;;3.37;2.23;;;;;;;;;;5013986;28;20034;-79
2020/12/23 12:33:02;;;;;;;3.53;1.20;;;;;;;;;;5019436;28;20029;-80
2020/12/23 12:35:28;;;;;;;3.10;1.33;;;;;;;;;;5026785;28;20567;-80
2020/12/23 12:37:54;;;;;;;2.93;1.63;;;;;;;;;;5037197;28;20029;-80
2020/12/23 12:40:20;;;;;;;3.07;1.90;;;;;;;;;;5030358;28;20033;-80
2020/12/23 12:42:46;;;;;;;5.27;2.57;;;;;;;;;;5019276;28;20042;-79
2020/12/23 12:45:12;;;;;;;6.00;3.47;;;;;;;;;;5018861;28;20050;-79
2020/12/23 12:47:38;;;;;;;11.60;7.10;;;;;;;;;;5015651;28;20037;-80
2020/12/23 12:50:04;;;;;;;6.47;3.73;;;;;;;;;;5013366;28;20033;-79
2020/12/23 12:52:31;;;;;;;9.93;4.67;;;;;;;;;;5016177;28;20044;-79
2020/12/23 12:54:57;;;;;;;6.50;2.77;;;;;;;;;;5017999;28;20018;-80
2020/12/23 12:57:23;;;;;;;7.13;3.27;;;;;;;;;;5018443;28;20029;-79
2020/12/23 12:59:49;;;;;;;5.20;3.20;;;;;;;;;;5012190;28;20060;-79
2020/12/23 13:02:15;;;;;;;5.60;2.97;;;;;;;;;;5013609;28;20029;-80
2020/12/23 13:04:42;;;;;;;5.63;3.07;;;;;;;;;;5017465;28;20033;-79
2020/12/23 13:07:08;;;;;;;6.30;3.47;;;;;;;;;;5020441;28;20033;-80
2020/12/23 13:09:35;;;;;;;9.10;4.70;;;;;;;;;;5016354;28;20062;-79
2020/12/23 13:12:01;;;;;;;7.73;4.13;;;;;;;;;;5012772;28;20096;-80
2020/12/23 13:14:27;;;;;;;4.40;2.57;;;;;;;;;;5011905;28;20026;-79
2020/12/23 13:16:53;;;;;;;5.40;2.83;;;;;;;;;;5011020;28;20026;-79
2020/12/23 13:19:19;;;;;;;6.13;3.10;;;;;;;;;;5010768;28;20037;-79
2020/12/23 13:21:49;;;;;;;6.50;2.67;;;;;;;;;;5011645;28;20032;-79
2020/12/23 13:24:16;;;;;;;4.77;2.30;;;;;;;;;;5010709;28;20042;-78
2020/12/23 13:26:42;;;;;;;7.27;3.40;;;;;;;;;;5013480;28;20058;-79
2020/12/23 13:29:08;;;;;;;7.50;3.17;;;;;;;;;;5013034;28;20033;-79
2020/12/23 13:31:34;;;;;;;5.00;2.20;;;;;;;;;;5013297;28;20056;-79
2020/12/23 13:34:00;;;;;;;4.87;2.90;;;;;;;;;;5011368;28;20041;-78
2020/12/23 13:36:27;;;;;;;5.57;2.80;;;;;;;;;;5002922;28;20654;-78
2020/12/23 13:38:53;;;;;;;5.30;2.43;;;;;;;;;;5009976;28;20022;-79
2020/12/23 13:41:19;;;;;;;5.37;3.50;;;;;;;;;;5013736;28;20034;-78
2020/12/23 13:43:47;;;;;;;4.53;2.80;;;;;;;;;;5012529;28;20485;-78
2020/12/23 13:46:16;;;;;;;4.77;3.00;;;;;;;;;;5012154;28;20428;-78
2020/12/23 13:48:43;;;;;;;4.57;2.40;;;;;;;;;;5009371;28;20053;-79
2020/12/23 13:51:11;;;;;;;5.40;3.10;;;;;;;;;;5024346;28;20472;-79
2020/12/23 13:53:37;;;;;;;14.23;7.57;;;;;;;;;;5014236;28;20420;-77
2020/12/23 13:56:03;;;;;;;6.57;3.23;;;;;;;;;;5002309;28;20517;-79
2020/12/23 13:58:30;;;;;;;5.10;2.33;;;;;;;;;;5003342;28;20042;-78
2020/12/23 14:00:56;;;;;;;4.10;2.37;;;;;;;;;;5002669;28;20064;-78
2020/12/23 14:03:22;;;;;;;10.40;4.20;;;;;;;;;;5019003;28;20034;-78
2020/12/23 14:05:48;;;;;;;15.73;7.03;;;;;;;;;;5015461;28;20026;-80
2020/12/23 14:08:14;;;;;;;14.37;6.47;;;;;;;;;;5016298;28;20034;-78
2020/12/23 14:10:41;;;;;;;16.40;7.00;;;;;;;;;;5012205;28;20085;-79
2020/12/23 14:13:09;;;;;;;11.97;5.60;;;;;;;;;;5012538;28;20083;-77
2020/12/23 14:15:35;;;;;;;13.10;7.10;;;;;;;;;;5004776;28;20026;-79
2020/12/23 14:18:01;;;;;;;10.93;7.20;;;;;;;;;;5009723;28;20026;-78
2020/12/23 14:20:27;;;;;;;10.10;5.43;;;;;;;;;;4994586;28;20019;-77
2020/12/23 14:22:53;;;;;;;8.07;4.03;;;;;;;;;;5014180;28;20039;-78
2020/12/23 14:25:23;;;;;;;8.37;5.00;;;;;;;;;;5009239;28;20041;-78
2020/12/23 14:27:50;;;;;;;9.67;7.50;;;;;;;;;;5011507;28;20034;-78
2020/12/23 14:30:16;;;;;;;10.33;5.10;;;;;;;;;;5011963;28;20036;-79
2020/12/23 14:32:42;;;;;;;6.47;3.80;;;;;;;;;;5015976;28;20030;-79
2020/12/23 14:35:08;;;;;;;7.03;3.90;;;;;;;;;;5033712;28;20890;-82
2020/12/23 14:37:38;;;;;;;6.60;3.60;;;;;;;;;;5026706;28;20029;-79
2020/12/23 14:40:05;;;;;;;7.20;3.77;;;;;;;;;;5022330;28;20033;-80
2020/12/23 14:42:31;;;;;;;7.47;3.50;;;;;;;;;;5026019;28;20030;-80